sensor_id;sensor_type;location;lat;lon;timestamp;pressure;altitude;pressure_sealevel;temperature
61390;BMP280;47260;48.274;19.814;2023-04-01T00:01:26;97775.41;;;10.84
61390;BMP280;47260;48.274;19.814;2023-04-01T00:02:57;97784.53;;;10.81
61390;BMP280;47260;48.274;19.814;2023-04-01T00:04:30;97785.06;;;10.79
61390;BMP280;47260;48.274;19.814;2023-04-01T00:06:02;97774.13;;;10.77
61390;BMP280;47260;48.274;19.814;2023-04-01T00:07:33;97772.31;;;10.72
61390;BMP280;47260;48.274;19.814;2023-04-01T00:09:04;97768.97;;;10.79
61390;BMP280;47260;48.274;19.814;2023-04-01T00:10:36;97773.06;;;10.73
61390;BMP280;47260;48.274;19.814;2023-04-01T00:12:06;97779.66;;;10.72
61390;BMP280;47260;48.274;19.814;2023-04-01T00:13:38;97775.31;;;10.69
61390;BMP280;47260;48.274;19.814;2023-04-01T00:15:10;97778.38;;;10.65
61390;BMP280;47260;48.274;19.814;2023-04-01T00:16:43;97776.38;;;10.66
61390;BMP280;47260;48.274;19.814;2023-04-01T00:18:15;97776.53;;;10.60
61390;BMP280;47260;48.274;19.814;2023-04-01T00:19:47;97778.69;;;10.62
61390;BMP280;47260;48.274;19.814;2023-04-01T00:21:18;97775.81;;;10.60
61390;BMP280;47260;48.274;19.814;2023-04-01T00:22:50;97783.28;;;10.54
61390;BMP280;47260;48.274;19.814;2023-04-01T00:24:22;97776.88;;;10.57
61390;BMP280;47260;48.274;19.814;2023-04-01T00:25:53;97767.38;;;10.56
61390;BMP280;47260;48.274;19.814;2023-04-01T00:27:25;97780.78;;;10.56
61390;BMP280;47260;48.274;19.814;2023-04-01T00:28:56;97774.69;;;10.48
61390;BMP280;47260;48.274;19.814;2023-04-01T00:30:29;97773.53;;;10.43
61390;BMP280;47260;48.274;19.814;2023-04-01T00:32:02;97783.16;;;10.39
61390;BMP280;47260;48.274;19.814;2023-04-01T00:33:34;97778.00;;;10.41
61390;BMP280;47260;48.274;19.814;2023-04-01T00:35:06;97772.25;;;10.37
61390;BMP280;47260;48.274;19.814;2023-04-01T00:36:37;97773.34;;;10.41
61390;BMP280;47260;48.274;19.814;2023-04-01T00:38:09;97772.06;;;10.35
61390;BMP280;47260;48.274;19.814;2023-04-01T00:39:41;97763.63;;;10.31
61390;BMP280;47260;48.274;19.814;2023-04-01T00:41:14;97765.22;;;10.26
61390;BMP280;47260;48.274;19.814;2023-04-01T00:42:47;97760.91;;;10.23
61390;BMP280;47260;48.274;19.814;2023-04-01T00:44:19;97764.88;;;10.30
61390;BMP280;47260;48.274;19.814;2023-04-01T00:45:51;97760.53;;;10.27
61390;BMP280;47260;48.274;19.814;2023-04-01T00:47:24;97758.41;;;10.25
61390;BMP280;47260;48.274;19.814;2023-04-01T00:48:55;97756.56;;;10.20
61390;BMP280;47260;48.274;19.814;2023-04-01T00:50:28;97755.13;;;10.19
61390;BMP280;47260;48.274;19.814;2023-04-01T00:51:59;97766.75;;;10.22
61390;BMP280;47260;48.274;19.814;2023-04-01T00:53:32;97766.03;;;10.21
61390;BMP280;47260;48.274;19.814;2023-04-01T00:55:03;97759.59;;;10.17
61390;BMP280;47260;48.274;19.814;2023-04-01T00:56:36;97761.88;;;10.13
61390;BMP280;47260;48.274;19.814;2023-04-01T00:58:13;97759.00;;;10.11
61390;BMP280;47260;48.274;19.814;2023-04-01T00:59:46;97765.63;;;10.10
61390;BMP280;47260;48.274;19.814;2023-04-01T01:01:17;97765.41;;;10.08
61390;BMP280;47260;48.274;19.814;2023-04-01T01:02:51;97761.81;;;10.05
61390;BMP280;47260;48.274;19.814;2023-04-01T01:04:23;97766.44;;;10.05
61390;BMP280;47260;48.274;19.814;2023-04-01T01:06:07;97761.47;;;10.09
61390;BMP280;47260;48.274;19.814;2023-04-01T01:07:41;97764.81;;;10.02
61390;BMP280;47260;48.274;19.814;2023-04-01T01:09:22;97763.41;;;10.01
61390;BMP280;47260;48.274;19.814;2023-04-01T01:10:56;97763.91;;;9.99
61390;BMP280;47260;48.274;19.814;2023-04-01T01:12:29;97763.69;;;9.97
61390;BMP280;47260;48.274;19.814;2023-04-01T01:14:04;97768.47;;;9.91
61390;BMP280;47260;48.274;19.814;2023-04-01T01:15:40;97765.59;;;9.89
61390;BMP280;47260;48.274;19.814;2023-04-01T01:17:16;97761.97;;;9.86
61390;BMP280;47260;48.274;19.814;2023-04-01T01:18:53;97769.81;;;9.84
61390;BMP280;47260;48.274;19.814;2023-04-01T01:22:18;97769.22;;;9.78
61390;BMP280;47260;48.274;19.814;2023-04-01T01:23:57;97769.81;;;9.84
61390;BMP280;47260;48.274;19.814;2023-04-01T01:25:35;97771.06;;;9.83
61390;BMP280;47260;48.274;19.814;2023-04-01T01:27:10;97770.88;;;9.81
61390;BMP280;47260;48.274;19.814;2023-04-01T01:28:44;97766.78;;;9.80
61390;BMP280;47260;48.274;19.814;2023-04-01T01:30:26;97767.88;;;9.85
61390;BMP280;47260;48.274;19.814;2023-04-01T01:32:03;97770.75;;;9.87
61390;BMP280;47260;48.274;19.814;2023-04-01T01:33:42;97766.44;;;9.84
61390;BMP280;47260;48.274;19.814;2023-04-01T01:35:20;97758.72;;;9.80
61390;BMP280;47260;48.274;19.814;2023-04-01T01:36:53;97766.63;;;9.86
61390;BMP280;47260;48.274;19.814;2023-04-01T01:38:27;97758.06;;;9.87
61390;BMP280;47260;48.274;19.814;2023-04-01T01:40:05;97759.50;;;9.88
61390;BMP280;47260;48.274;19.814;2023-04-01T01:41:39;97754.88;;;9.89
61390;BMP280;47260;48.274;19.814;2023-04-01T01:43:14;97754.66;;;9.87
61390;BMP280;47260;48.274;19.814;2023-04-01T01:44:46;97752.50;;;9.85
61390;BMP280;47260;48.274;19.814;2023-04-01T01:46:21;97758.06;;;9.87
61390;BMP280;47260;48.274;19.814;2023-04-01T01:47:53;97751.97;;;9.87
61390;BMP280;47260;48.274;19.814;2023-04-01T01:49:26;97759.81;;;9.85
61390;BMP280;47260;48.274;19.814;2023-04-01T01:51:01;97745.09;;;9.78
61390;BMP280;47260;48.274;19.814;2023-04-01T01:52:33;97745.34;;;9.80
61390;BMP280;47260;48.274;19.814;2023-04-01T01:54:04;97761.47;;;9.88
61390;BMP280;47260;48.274;19.814;2023-04-01T01:55:37;97753.38;;;9.80
61390;BMP280;47260;48.274;19.814;2023-04-01T01:57:09;97746.75;;;9.81
61390;BMP280;47260;48.274;19.814;2023-04-01T01:58:45;97752.94;;;9.76
61390;BMP280;47260;48.274;19.814;2023-04-01T02:00:21;97754.94;;;9.76
61390;BMP280;47260;48.274;19.814;2023-04-01T02:01:52;97753.66;;;9.77
61390;BMP280;47260;48.274;19.814;2023-04-01T02:03:26;97759.97;;;9.79
61390;BMP280;47260;48.274;19.814;2023-04-01T02:04:58;97759.03;;;9.77
61390;BMP280;47260;48.274;19.814;2023-04-01T02:06:32;97762.44;;;9.77
61390;BMP280;47260;48.274;19.814;2023-04-01T02:08:06;97755.97;;;9.73
61390;BMP280;47260;48.274;19.814;2023-04-01T02:09:37;97755.75;;;9.71
61390;BMP280;47260;48.274;19.814;2023-04-01T02:11:10;97754.53;;;9.72
61390;BMP280;47260;48.274;19.814;2023-04-01T02:12:45;97750.47;;;9.78
61390;BMP280;47260;48.274;19.814;2023-04-01T02:14:18;97750.69;;;9.80
61390;BMP280;47260;48.274;19.814;2023-04-01T02:15:51;97749.44;;;9.81
61390;BMP280;47260;48.274;19.814;2023-04-01T02:17:26;97747.47;;;9.82
61390;BMP280;47260;48.274;19.814;2023-04-01T02:18:58;97741.41;;;9.81
61390;BMP280;47260;48.274;19.814;2023-04-01T02:20:30;97749.63;;;9.83
61390;BMP280;47260;48.274;19.814;2023-04-01T02:22:05;97744.88;;;9.89
61390;BMP280;47260;48.274;19.814;2023-04-01T02:23:37;97752.59;;;9.93
61390;BMP280;47260;48.274;19.814;2023-04-01T02:25:11;97750.75;;;9.88
61390;BMP280;47260;48.274;19.814;2023-04-01T02:26:42;97754.66;;;9.87
61390;BMP280;47260;48.274;19.814;2023-04-01T02:28:14;97756.13;;;9.88
61390;BMP280;47260;48.274;19.814;2023-04-01T02:29:50;97752.84;;;9.82
61390;BMP280;47260;48.274;19.814;2023-04-01T02:31:21;97757.47;;;9.81
61390;BMP280;47260;48.274;19.814;2023-04-01T02:32:54;97759.03;;;9.77
61390;BMP280;47260;48.274;19.814;2023-04-01T02:34:26;97755.44;;;9.74
61390;BMP280;47260;48.274;19.814;2023-04-01T02:35:58;97756.19;;;9.75
61390;BMP280;47260;48.274;19.814;2023-04-01T02:37:31;97754.00;;;9.73
61390;BMP280;47260;48.274;19.814;2023-04-01T02:39:03;97755.75;;;9.71
61390;BMP280;47260;48.274;19.814;2023-04-01T02:40:41;97766.47;;;9.71
61390;BMP280;47260;48.274;19.814;2023-04-01T02:42:13;97764.00;;;9.73
61390;BMP280;47260;48.274;19.814;2023-04-01T02:43:44;97761.53;;;9.75
61390;BMP280;47260;48.274;19.814;2023-04-01T02:45:15;97769.66;;;9.69
61390;BMP280;47260;48.274;19.814;2023-04-01T02:46:46;97750.13;;;9.61
61390;BMP280;47260;48.274;19.814;2023-04-01T02:48:18;97747.97;;;9.60
61390;BMP280;47260;48.274;19.814;2023-04-01T02:49:49;97751.56;;;9.62
61390;BMP280;47260;48.274;19.814;2023-04-01T02:51:20;97758.34;;;9.63
61390;BMP280;47260;48.274;19.814;2023-04-01T02:52:53;97754.97;;;9.63
61390;BMP280;47260;48.274;19.814;2023-04-01T02:54:24;97750.31;;;9.63
61390;BMP280;47260;48.274;19.814;2023-04-01T02:55:56;97757.22;;;9.59
61390;BMP280;47260;48.274;19.814;2023-04-01T02:57:27;97754.38;;;9.57
61390;BMP280;47260;48.274;19.814;2023-04-01T02:58:58;97739.53;;;9.56
61390;BMP280;47260;48.274;19.814;2023-04-01T03:00:29;97742.72;;;9.54
61390;BMP280;47260;48.274;19.814;2023-04-01T03:02:01;97738.81;;;9.55
61390;BMP280;47260;48.274;19.814;2023-04-01T03:03:31;97737.50;;;9.49
61390;BMP280;47260;48.274;19.814;2023-04-01T03:05:03;97746.06;;;9.47
61390;BMP280;47260;48.274;19.814;2023-04-01T03:06:34;97747.50;;;9.48
61390;BMP280;47260;48.274;19.814;2023-04-01T03:08:07;97744.81;;;9.48
61390;BMP280;47260;48.274;19.814;2023-04-01T03:09:38;97738.94;;;9.50
61390;BMP280;47260;48.274;19.814;2023-04-01T03:11:10;97742.66;;;9.47
61390;BMP280;47260;48.274;19.814;2023-04-01T03:12:42;97743.69;;;9.44
61390;BMP280;47260;48.274;19.814;2023-04-01T03:14:13;97736.91;;;9.43
61390;BMP280;47260;48.274;19.814;2023-04-01T03:15:45;97737.38;;;9.41
61390;BMP280;47260;48.274;19.814;2023-04-01T03:17:16;97742.56;;;9.39
61390;BMP280;47260;48.274;19.814;2023-04-01T03:18:48;97732.47;;;9.32
61390;BMP280;47260;48.274;19.814;2023-04-01T03:20:22;97730.00;;;9.34
61390;BMP280;47260;48.274;19.814;2023-04-01T03:21:54;97734.44;;;9.32
61390;BMP280;47260;48.274;19.814;2023-04-01T03:23:27;97730.66;;;9.27
61390;BMP280;47260;48.274;19.814;2023-04-01T03:24:59;97732.72;;;9.21
61390;BMP280;47260;48.274;19.814;2023-04-01T03:26:30;97719.84;;;9.20
61390;BMP280;47260;48.274;19.814;2023-04-01T03:28:02;97729.44;;;9.15
61390;BMP280;47260;48.274;19.814;2023-04-01T03:29:34;97724.56;;;9.14
61390;BMP280;47260;48.274;19.814;2023-04-01T03:31:05;97721.19;;;9.13
61390;BMP280;47260;48.274;19.814;2023-04-01T03:32:44;97731.22;;;9.13
61390;BMP280;47260;48.274;19.814;2023-04-01T03:34:16;97722.25;;;9.10
61390;BMP280;47260;48.274;19.814;2023-04-01T03:35:47;97732.84;;;9.16
61390;BMP280;47260;48.274;19.814;2023-04-01T03:37:23;97731.22;;;9.13
61390;BMP280;47260;48.274;19.814;2023-04-01T03:38:56;97729.34;;;9.08
61390;BMP280;47260;48.274;19.814;2023-04-01T03:40:37;97726.78;;;9.02
61390;BMP280;47260;48.274;19.814;2023-04-01T03:42:08;97724.63;;;9.01
61390;BMP280;47260;48.274;19.814;2023-04-01T03:43:40;97723.81;;;8.92
61390;BMP280;47260;48.274;19.814;2023-04-01T03:45:12;97727.50;;;8.89
61390;BMP280;47260;48.274;19.814;2023-04-01T03:46:44;97726.38;;;8.85
61390;BMP280;47260;48.274;19.814;2023-04-01T03:48:15;97727.09;;;8.85
61390;BMP280;47260;48.274;19.814;2023-04-01T03:49:46;97726.38;;;8.85
61390;BMP280;47260;48.274;19.814;2023-04-01T03:51:18;97725.03;;;8.78
61390;BMP280;47260;48.274;19.814;2023-04-01T03:52:50;97724.09;;;8.76
61390;BMP280;47260;48.274;19.814;2023-04-01T03:54:23;97714.66;;;8.75
61390;BMP280;47260;48.274;19.814;2023-04-01T03:55:54;97721.97;;;8.74
61390;BMP280;47260;48.274;19.814;2023-04-01T03:57:26;97720.19;;;8.64
61390;BMP280;47260;48.274;19.814;2023-04-01T03:59:02;97722.47;;;8.60
61390;BMP280;47260;48.274;19.814;2023-04-01T04:00:34;97715.44;;;8.57
61390;BMP280;47260;48.274;19.814;2023-04-01T04:02:06;97723.28;;;8.55
61390;BMP280;47260;48.274;19.814;2023-04-01T04:03:38;97722.88;;;8.51
61390;BMP280;47260;48.274;19.814;2023-04-01T04:05:08;97713.91;;;8.48
61390;BMP280;47260;48.274;19.814;2023-04-01T04:06:42;97733.34;;;8.49
61390;BMP280;47260;48.274;19.814;2023-04-01T04:08:14;97724.94;;;8.45
61390;BMP280;47260;48.274;19.814;2023-04-01T04:09:46;97723.78;;;8.40
61390;BMP280;47260;48.274;19.814;2023-04-01T04:11:18;97721.59;;;8.39
61390;BMP280;47260;48.274;19.814;2023-04-01T04:12:50;97721.72;;;8.33
61390;BMP280;47260;48.274;19.814;2023-04-01T04:14:23;97718.31;;;8.33
61390;BMP280;47260;48.274;19.814;2023-04-01T04:15:55;97726.41;;;8.27
61390;BMP280;47260;48.274;19.814;2023-04-01T04:17:26;97728.19;;;8.25
61390;BMP280;47260;48.274;19.814;2023-04-01T04:18:58;97727.44;;;8.24
61390;BMP280;47260;48.274;19.814;2023-04-01T04:20:28;97731.03;;;8.27
61390;BMP280;47260;48.274;19.814;2023-04-01T04:22:00;97734.25;;;8.25
61390;BMP280;47260;48.274;19.814;2023-04-01T04:23:31;97728.91;;;8.25
61390;BMP280;47260;48.274;19.814;2023-04-01T04:25:06;97732.06;;;8.24
61390;BMP280;47260;48.274;19.814;2023-04-01T04:26:40;97739.66;;;8.20
61390;BMP280;47260;48.274;19.814;2023-04-01T04:28:12;97745.00;;;8.20
61390;BMP280;47260;48.274;19.814;2023-04-01T04:29:43;97748.41;;;8.20
61390;BMP280;47260;48.274;19.814;2023-04-01T04:31:17;97759.09;;;8.20
61390;BMP280;47260;48.274;19.814;2023-04-01T04:32:49;97749.72;;;8.13
61390;BMP280;47260;48.274;19.814;2023-04-01T04:34:21;97754.03;;;8.17
61390;BMP280;47260;48.274;19.814;2023-04-01T04:35:54;97754.75;;;8.17
61390;BMP280;47260;48.274;19.814;2023-04-01T04:37:26;97766.19;;;8.18
61390;BMP280;47260;48.274;19.814;2023-04-01T04:38:58;97770.22;;;8.24
61390;BMP280;47260;48.274;19.814;2023-04-01T04:40:34;97777.94;;;8.28
61390;BMP280;47260;48.274;19.814;2023-04-01T04:42:06;97779.16;;;8.27
61390;BMP280;47260;48.274;19.814;2023-04-01T04:43:38;97785.44;;;8.29
61390;BMP280;47260;48.274;19.814;2023-04-01T04:45:10;97780.53;;;8.33
61390;BMP280;47260;48.274;19.814;2023-04-01T04:46:48;97783.53;;;8.43
61390;BMP280;47260;48.274;19.814;2023-04-01T04:48:20;97786.44;;;8.45
61390;BMP280;47260;48.274;19.814;2023-04-01T04:49:52;97788.19;;;8.55
61390;BMP280;47260;48.274;19.814;2023-04-01T04:51:24;97774.00;;;8.86
61390;BMP280;47260;48.274;19.814;2023-04-01T04:52:56;97781.88;;;9.11
61390;BMP280;47260;48.274;19.814;2023-04-01T04:54:27;97783.28;;;9.38
61390;BMP280;47260;48.274;19.814;2023-04-01T04:56:03;97779.38;;;9.72
61390;BMP280;47260;48.274;19.814;2023-04-01T04:57:42;97782.25;;;9.95
61390;BMP280;47260;48.274;19.814;2023-04-01T04:59:13;97792.34;;;10.23
61390;BMP280;47260;48.274;19.814;2023-04-01T05:00:52;97799.75;;;10.50
61390;BMP280;47260;48.274;19.814;2023-04-01T05:02:31;97800.97;;;10.77
61390;BMP280;47260;48.274;19.814;2023-04-01T05:04:03;97809.00;;;10.98
61390;BMP280;47260;48.274;19.814;2023-04-01T05:05:34;97812.31;;;11.19
61390;BMP280;47260;48.274;19.814;2023-04-01T05:07:07;97820.06;;;11.30
61390;BMP280;47260;48.274;19.814;2023-04-01T05:08:39;97810.53;;;11.22
61390;BMP280;47260;48.274;19.814;2023-04-01T05:10:11;97818.22;;;11.18
61390;BMP280;47260;48.274;19.814;2023-04-01T05:11:44;97820.69;;;11.08
61390;BMP280;47260;48.274;19.814;2023-04-01T05:13:15;97826.97;;;11.11
61390;BMP280;47260;48.274;19.814;2023-04-01T05:14:51;97824.06;;;11.09
61390;BMP280;47260;48.274;19.814;2023-04-01T05:16:23;97825.88;;;11.14
61390;BMP280;47260;48.274;19.814;2023-04-01T05:17:54;97827.78;;;10.98
61390;BMP280;47260;48.274;19.814;2023-04-01T05:19:26;97829.88;;;10.92
61390;BMP280;47260;48.274;19.814;2023-04-01T05:20:57;97834.47;;;10.84
61390;BMP280;47260;48.274;19.814;2023-04-01T05:22:29;97822.50;;;10.85
61390;BMP280;47260;48.274;19.814;2023-04-01T05:24:00;97827.66;;;10.75
61390;BMP280;47260;48.274;19.814;2023-04-01T05:25:33;97820.09;;;10.74
61390;BMP280;47260;48.274;19.814;2023-04-01T05:27:09;97815.66;;;10.56
61390;BMP280;47260;48.274;19.814;2023-04-01T05:28:43;97815.72;;;10.63
61390;BMP280;47260;48.274;19.814;2023-04-01T05:30:15;97809.16;;;11.00
61390;BMP280;47260;48.274;19.814;2023-04-01T05:32:02;97800.78;;;11.47
61390;BMP280;47260;48.274;19.814;2023-04-01T05:33:34;97815.53;;;11.76
61390;BMP280;47260;48.274;19.814;2023-04-01T05:35:06;97815.72;;;11.70
61390;BMP280;47260;48.274;19.814;2023-04-01T05:36:38;97814.28;;;11.69
61390;BMP280;47260;48.274;19.814;2023-04-01T05:38:10;97823.41;;;11.74
61390;BMP280;47260;48.274;19.814;2023-04-01T05:39:41;97820.41;;;11.77
61390;BMP280;47260;48.274;19.814;2023-04-01T05:41:13;97824.03;;;11.88
61390;BMP280;47260;48.274;19.814;2023-04-01T05:42:49;97831.19;;;11.85
61390;BMP280;47260;48.274;19.814;2023-04-01T05:44:22;97831.75;;;12.06
61390;BMP280;47260;48.274;19.814;2023-04-01T05:46:13;97834.06;;;12.10
61390;BMP280;47260;48.274;19.814;2023-04-01T05:47:53;97829.97;;;12.09
61390;BMP280;47260;48.274;19.814;2023-04-01T05:49:25;97824.56;;;11.94
61390;BMP280;47260;48.274;19.814;2023-04-01T05:50:56;97822.94;;;11.83
61390;BMP280;47260;48.274;19.814;2023-04-01T05:52:28;97822.59;;;11.94
61390;BMP280;47260;48.274;19.814;2023-04-01T05:53:59;97818.13;;;12.19
61390;BMP280;47260;48.274;19.814;2023-04-01T05:55:30;97820.63;;;12.32
61390;BMP280;47260;48.274;19.814;2023-04-01T05:57:02;97811.47;;;12.73
61390;BMP280;47260;48.274;19.814;2023-04-01T05:58:35;97810.38;;;12.76
61390;BMP280;47260;48.274;19.814;2023-04-01T06:00:06;97811.75;;;13.00
61390;BMP280;47260;48.274;19.814;2023-04-01T06:01:42;97802.97;;;12.92
61390;BMP280;47260;48.274;19.814;2023-04-01T06:03:14;97813.72;;;13.46
61390;BMP280;47260;48.274;19.814;2023-04-01T06:04:45;97813.97;;;13.98
61390;BMP280;47260;48.274;19.814;2023-04-01T06:06:20;97816.75;;;14.49
61390;BMP280;47260;48.274;19.814;2023-04-01T06:07:55;97812.84;;;14.25
61390;BMP280;47260;48.274;19.814;2023-04-01T06:09:29;97820.63;;;13.97
61390;BMP280;47260;48.274;19.814;2023-04-01T06:11:04;97816.94;;;14.09
61390;BMP280;47260;48.274;19.814;2023-04-01T06:12:51;97816.53;;;14.54
61390;BMP280;47260;48.274;19.814;2023-04-01T06:14:29;97816.47;;;14.79
61390;BMP280;47260;48.274;19.814;2023-04-01T06:16:07;97815.03;;;14.95
61390;BMP280;47260;48.274;19.814;2023-04-01T06:17:46;97817.19;;;15.23
61390;BMP280;47260;48.274;19.814;2023-04-01T06:19:22;97815.03;;;15.39
61390;BMP280;47260;48.274;19.814;2023-04-01T06:20:57;97810.03;;;15.62
61390;BMP280;47260;48.274;19.814;2023-04-01T06:22:40;97813.31;;;15.70
61390;BMP280;47260;48.274;19.814;2023-04-01T06:24:24;97812.56;;;15.96
61390;BMP280;47260;48.274;19.814;2023-04-01T06:26:07;97813.22;;;16.33
61390;BMP280;47260;48.274;19.814;2023-04-01T06:27:47;97807.09;;;16.89
61390;BMP280;47260;48.274;19.814;2023-04-01T06:29:29;97816.81;;;17.02
61390;BMP280;47260;48.274;19.814;2023-04-01T06:31:07;97812.81;;;17.83
61390;BMP280;47260;48.274;19.814;2023-04-01T06:34:41;97812.81;;;18.14
61390;BMP280;47260;48.274;19.814;2023-04-01T06:40:05;97807.41;;;18.79
61390;BMP280;47260;48.274;19.814;2023-04-01T06:42:02;97808.69;;;18.66
61390;BMP280;47260;48.274;19.814;2023-04-01T06:43:43;97815.81;;;18.50
61390;BMP280;47260;48.274;19.814;2023-04-01T06:45:39;97814.53;;;18.84
61390;BMP280;47260;48.274;19.814;2023-04-01T06:47:36;97821.66;;;18.89
61390;BMP280;47260;48.274;19.814;2023-04-01T06:49:31;97833.78;;;19.32
61390;BMP280;47260;48.274;19.814;2023-04-01T06:51:24;97835.72;;;19.53
61390;BMP280;47260;48.274;19.814;2023-04-01T06:53:18;97831.81;;;19.56
61390;BMP280;47260;48.274;19.814;2023-04-01T06:57:23;97828.81;;;20.34
61390;BMP280;47260;48.274;19.814;2023-04-01T06:58:58;97834.50;;;20.75
61390;BMP280;47260;48.274;19.814;2023-04-01T07:00:31;97825.63;;;20.88
61390;BMP280;47260;48.274;19.814;2023-04-01T07:02:11;97837.38;;;21.04
61390;BMP280;47260;48.274;19.814;2023-04-01T07:03:44;97842.72;;;21.27
61390;BMP280;47260;48.274;19.814;2023-04-01T07:05:19;97837.50;;;21.58
61390;BMP280;47260;48.274;19.814;2023-04-01T07:06:52;97848.22;;;21.54
61390;BMP280;47260;48.274;19.814;2023-04-01T07:08:25;97849.94;;;21.88
61390;BMP280;47260;48.274;19.814;2023-04-01T07:09:58;97846.69;;;22.05
61390;BMP280;47260;48.274;19.814;2023-04-01T07:11:34;97838.34;;;22.17
61390;BMP280;47260;48.274;19.814;2023-04-01T07:13:36;97840.00;;;22.08
61390;BMP280;47260;48.274;19.814;2023-04-01T07:15:19;97843.56;;;21.97
61390;BMP280;47260;48.274;19.814;2023-04-01T07:16:54;97834.34;;;22.33
61390;BMP280;47260;48.274;19.814;2023-04-01T07:18:30;97839.63;;;22.59
61390;BMP280;47260;48.274;19.814;2023-04-01T07:20:03;97836.22;;;22.74
61390;BMP280;47260;48.274;19.814;2023-04-01T07:21:39;97831.59;;;22.63
61390;BMP280;47260;48.274;19.814;2023-04-01T07:23:21;97829.91;;;22.85
61390;BMP280;47260;48.274;19.814;2023-04-01T07:25:17;97823.19;;;22.88
61390;BMP280;47260;48.274;19.814;2023-04-01T07:26:59;97824.09;;;22.92
61390;BMP280;47260;48.274;19.814;2023-04-01T07:28:37;97824.88;;;22.95
61390;BMP280;47260;48.274;19.814;2023-04-01T07:30:25;97820.81;;;22.51
61390;BMP280;47260;48.274;19.814;2023-04-01T07:33:53;97820.38;;;22.57
61390;BMP280;47260;48.274;19.814;2023-04-01T07:35:27;97829.19;;;22.40
61390;BMP280;47260;48.274;19.814;2023-04-01T07:37:02;97823.78;;;22.12
61390;BMP280;47260;48.274;19.814;2023-04-01T07:38:40;97826.44;;;21.97
61390;BMP280;47260;48.274;19.814;2023-04-01T07:40:21;97815.84;;;21.76
61390;BMP280;47260;48.274;19.814;2023-04-01T07:41:56;97826.03;;;21.89
61390;BMP280;47260;48.274;19.814;2023-04-01T07:43:38;97821.59;;;21.95
61390;BMP280;47260;48.274;19.814;2023-04-01T07:45:24;97825.09;;;22.11
61390;BMP280;47260;48.274;19.814;2023-04-01T07:47:04;97825.22;;;22.43
61390;BMP280;47260;48.274;19.814;2023-04-01T07:48:38;97822.22;;;22.97
61390;BMP280;47260;48.274;19.814;2023-04-01T07:50:13;97826.38;;;23.29
61390;BMP280;47260;48.274;19.814;2023-04-01T07:51:50;97822.97;;;23.46
61390;BMP280;47260;48.274;19.814;2023-04-01T07:53:25;97823.25;;;23.36
61390;BMP280;47260;48.274;19.814;2023-04-01T07:55:04;97825.47;;;23.55
61390;BMP280;47260;48.274;19.814;2023-04-01T07:56:38;97812.16;;;23.65
61390;BMP280;47260;48.274;19.814;2023-04-01T07:58:17;97818.84;;;23.29
61390;BMP280;47260;48.274;19.814;2023-04-01T07:59:53;97821.09;;;23.17
61390;BMP280;47260;48.274;19.814;2023-04-01T08:01:45;97818.97;;;23.16
61390;BMP280;47260;48.274;19.814;2023-04-01T08:03:22;97809.06;;;23.09
61390;BMP280;47260;48.274;19.814;2023-04-01T08:04:58;97813.13;;;23.08
61390;BMP280;47260;48.274;19.814;2023-04-01T08:06:35;97814.38;;;23.05
61390;BMP280;47260;48.274;19.814;2023-04-01T08:08:13;97812.38;;;23.54
61390;BMP280;47260;48.274;19.814;2023-04-01T08:10:15;97810.38;;;23.39
61390;BMP280;47260;48.274;19.814;2023-04-01T08:12:11;97809.53;;;23.52
61390;BMP280;47260;48.274;19.814;2023-04-01T08:14:04;97808.25;;;23.37
61390;BMP280;47260;48.274;19.814;2023-04-01T08:15:58;97805.25;;;23.31
61390;BMP280;47260;48.274;19.814;2023-04-01T08:17:42;97797.50;;;22.95
61390;BMP280;47260;48.274;19.814;2023-04-01T08:19:20;97800.78;;;23.07
61390;BMP280;47260;48.274;19.814;2023-04-01T08:20:57;97804.31;;;23.25
61390;BMP280;47260;48.274;19.814;2023-04-01T08:22:32;97803.16;;;23.14
61390;BMP280;47260;48.274;19.814;2023-04-01T08:24:10;97803.78;;;23.13
61390;BMP280;47260;48.274;19.814;2023-04-01T08:25:45;97801.81;;;23.00
61390;BMP280;47260;48.274;19.814;2023-04-01T08:27:21;97803.94;;;23.01
61390;BMP280;47260;48.274;19.814;2023-04-01T08:28:57;97801.34;;;22.29
61390;BMP280;47260;48.274;19.814;2023-04-01T08:30:35;97806.31;;;22.33
61390;BMP280;47260;48.274;19.814;2023-04-01T08:32:08;97796.38;;;22.40
61390;BMP280;47260;48.274;19.814;2023-04-01T08:33:42;97805.69;;;22.34
61390;BMP280;47260;48.274;19.814;2023-04-01T08:35:18;97795.94;;;22.45
61390;BMP280;47260;48.274;19.814;2023-04-01T08:36:57;97791.47;;;22.67
61390;BMP280;47260;48.274;19.814;2023-04-01T08:38:32;97801.28;;;22.72
61390;BMP280;47260;48.274;19.814;2023-04-01T08:40:14;97794.69;;;22.77
61390;BMP280;47260;48.274;19.814;2023-04-01T08:41:58;97793.69;;;22.71
61390;BMP280;47260;48.274;19.814;2023-04-01T08:44:00;97794.72;;;22.64
61390;BMP280;47260;48.274;19.814;2023-04-01T08:45:42;97795.88;;;22.59
61390;BMP280;47260;48.274;19.814;2023-04-01T08:47:20;97801.16;;;22.25
61390;BMP280;47260;48.274;19.814;2023-04-01T08:49:01;97796.84;;;22.20
61390;BMP280;47260;48.274;19.814;2023-04-01T08:51:02;97795.88;;;22.29
61390;BMP280;47260;48.274;19.814;2023-04-01T08:52:42;97791.84;;;22.30
61390;BMP280;47260;48.274;19.814;2023-04-01T08:54:29;97790.28;;;22.12
61390;BMP280;47260;48.274;19.814;2023-04-01T08:56:06;97799.44;;;22.32
61390;BMP280;47260;48.274;19.814;2023-04-01T08:57:42;97791.31;;;22.34
61390;BMP280;47260;48.274;19.814;2023-04-01T08:59:47;97803.38;;;22.00
61390;BMP280;47260;48.274;19.814;2023-04-01T09:01:44;97798.22;;;21.92
61390;BMP280;47260;48.274;19.814;2023-04-01T09:03:49;97797.03;;;21.55
61390;BMP280;47260;48.274;19.814;2023-04-01T09:05:34;97793.69;;;21.16
61390;BMP280;47260;48.274;19.814;2023-04-01T09:07:11;97798.28;;;20.61
61390;BMP280;47260;48.274;19.814;2023-04-01T09:08:52;97800.66;;;20.30
61390;BMP280;47260;48.274;19.814;2023-04-01T09:10:36;97795.84;;;20.53
61390;BMP280;47260;48.274;19.814;2023-04-01T09:12:38;97799.41;;;20.70
61390;BMP280;47260;48.274;19.814;2023-04-01T09:14:18;97793.03;;;20.90
61390;BMP280;47260;48.274;19.814;2023-04-01T09:16:13;97784.78;;;20.26
61390;BMP280;47260;48.274;19.814;2023-04-01T09:17:50;97797.81;;;19.80
61390;BMP280;47260;48.274;19.814;2023-04-01T09:19:27;97802.47;;;19.54